createdAt,value
2018-05-25T00:00:01.084Z,18.13
2018-05-25T00:01:01.796Z,18.11
2018-05-25T00:02:02.518Z,18.16
2018-05-25T00:03:03.236Z,18.13
2018-05-25T00:04:03.947Z,18.13
2018-05-25T00:05:04.671Z,18.15
2018-05-25T00:06:05.398Z,18.10
2018-05-25T00:07:06.112Z,18.15
2018-05-25T00:08:06.830Z,18.18
2018-05-25T00:09:07.552Z,18.18
2018-05-25T00:10:08.264Z,18.15
2018-05-25T00:11:08.989Z,18.16
2018-05-25T00:12:09.703Z,18.15
2018-05-25T00:13:10.417Z,18.18
2018-05-25T00:14:11.133Z,18.19
2018-05-25T00:15:11.848Z,18.13
2018-05-25T00:16:12.561Z,18.11
2018-05-25T00:17:13.285Z,18.05
2018-05-25T00:18:13.999Z,18.16
2018-05-25T00:19:14.711Z,18.15
2018-05-25T00:20:15.426Z,18.13
2018-05-25T00:21:16.153Z,18.15
2018-05-25T00:22:16.867Z,18.10
2018-05-25T00:23:17.581Z,18.08
2018-05-25T00:24:18.295Z,18.07
2018-05-25T00:25:19.011Z,18.11
2018-05-25T00:26:19.735Z,18.15
2018-05-25T00:27:20.449Z,18.15
2018-05-25T00:28:21.174Z,18.23
2018-05-25T00:29:21.887Z,18.07
2018-05-25T00:30:22.600Z,18.05
2018-05-25T00:31:23.312Z,18.13
2018-05-25T00:32:24.037Z,18.11
2018-05-25T00:33:24.750Z,18.16
2018-05-25T00:34:25.475Z,18.10
2018-05-25T00:35:26.189Z,18.11
2018-05-25T00:36:26.913Z,18.15
2018-05-25T00:37:27.627Z,18.10
2018-05-25T00:38:28.339Z,18.10
2018-05-25T00:39:29.056Z,18.10
2018-05-25T00:40:29.767Z,18.11
2018-05-25T00:41:30.482Z,18.10
2018-05-25T00:42:31.196Z,18.10
2018-05-25T00:43:31.908Z,18.08
2018-05-25T00:44:32.620Z,18.07
2018-05-25T00:45:33.333Z,18.05
2018-05-25T00:46:34.046Z,18.04
2018-05-25T00:47:34.763Z,18.04
2018-05-25T00:48:35.473Z,18.00
2018-05-25T00:49:36.187Z,18.05
2018-05-25T00:50:36.901Z,17.98
2018-05-25T00:51:37.625Z,18.03
2018-05-25T00:52:38.339Z,18.03
2018-05-25T00:53:39.067Z,18.03
2018-05-25T00:54:39.764Z,18.04
2018-05-25T00:55:40.477Z,18.01
2018-05-25T00:56:41.200Z,18.03
2018-05-25T00:57:41.916Z,17.97
2018-05-25T00:58:42.629Z,18.04
2018-05-25T00:59:43.343Z,18.05
2018-05-25T01:00:44.057Z,18.07
2018-05-25T01:01:44.772Z,18.03
2018-05-25T01:02:45.497Z,18.04
2018-05-25T01:03:46.211Z,17.98
2018-05-25T01:04:46.925Z,17.95
2018-05-25T01:05:47.638Z,18.00
2018-05-25T01:06:48.353Z,17.98
2018-05-25T01:07:49.066Z,17.97
2018-05-25T01:08:49.781Z,17.95
2018-05-25T01:09:50.493Z,18.00
2018-05-25T01:10:51.207Z,17.95
2018-05-25T01:11:51.919Z,17.95
2018-05-25T01:12:52.632Z,17.98
2018-05-25T01:13:53.358Z,18.01
2018-05-25T01:14:54.075Z,17.97
2018-05-25T01:15:54.798Z,17.94
2018-05-25T01:16:55.511Z,17.98
2018-05-25T01:17:56.228Z,18.04
2018-05-25T01:18:56.950Z,17.92
2018-05-25T01:19:57.664Z,18.00
2018-05-25T01:20:58.379Z,17.94
2018-05-25T01:21:59.092Z,17.95
2018-05-25T01:22:59.807Z,17.83
2018-05-25T01:24:00.518Z,17.98
2018-05-25T01:25:01.235Z,18.00
2018-05-25T01:26:01.956Z,17.98
2018-05-25T01:27:02.670Z,17.98
2018-05-25T01:28:03.400Z,18.04
2018-05-25T01:29:04.111Z,17.87
2018-05-25T01:30:04.827Z,17.97
2018-05-25T01:31:05.547Z,18.00
2018-05-25T01:32:06.262Z,18.01
2018-05-25T01:33:06.973Z,18.01
2018-05-25T01:34:07.686Z,17.89
2018-05-25T01:35:08.400Z,18.00
2018-05-25T01:36:09.123Z,17.92
2018-05-25T01:37:09.836Z,18.01
2018-05-25T01:38:10.551Z,17.85
2018-05-25T01:39:11.276Z,17.92
2018-05-25T01:40:11.990Z,17.86
2018-05-25T01:41:12.704Z,17.89
2018-05-25T01:42:13.418Z,17.87
2018-05-25T01:43:14.131Z,17.89
2018-05-25T01:44:14.846Z,17.86
2018-05-25T01:45:15.570Z,17.89
2018-05-25T01:46:16.283Z,17.87
2018-05-25T01:47:16.995Z,17.94
2018-05-25T01:48:17.710Z,17.85
2018-05-25T01:49:18.423Z,17.86
2018-05-25T01:50:19.149Z,17.87
2018-05-25T01:51:19.864Z,17.83
2018-05-25T01:52:20.589Z,17.87
2018-05-25T01:53:21.313Z,17.89
2018-05-25T01:54:22.028Z,17.94
2018-05-25T01:55:22.745Z,17.89
2018-05-25T01:56:23.456Z,17.87
2018-05-25T01:57:24.170Z,17.85
2018-05-25T01:58:24.883Z,17.87
2018-05-25T01:59:25.596Z,17.92
2018-05-25T02:00:26.310Z,17.87
2018-05-25T02:01:27.031Z,17.85
2018-05-25T02:02:27.738Z,17.83
2018-05-25T02:03:28.452Z,17.90
2018-05-25T02:04:29.166Z,17.86
2018-05-25T02:05:29.881Z,17.83
2018-05-25T02:06:30.593Z,17.85
2018-05-25T02:07:31.307Z,17.89
2018-05-25T02:08:32.020Z,17.83
2018-05-25T02:09:32.745Z,17.86
2018-05-25T02:10:33.458Z,17.79
2018-05-25T02:11:34.177Z,17.78
2018-05-25T02:12:34.896Z,17.74
2018-05-25T02:13:35.611Z,17.85
2018-05-25T02:14:36.325Z,17.85
2018-05-25T02:15:37.050Z,17.80
2018-05-25T02:16:37.763Z,17.74
2018-05-25T02:17:38.486Z,17.72
2018-05-25T02:18:39.210Z,17.79
2018-05-25T02:19:39.924Z,17.71
2018-05-25T02:20:40.653Z,17.65
2018-05-25T02:21:41.378Z,17.74
2018-05-25T02:22:42.090Z,17.65
2018-05-25T02:23:42.802Z,17.65
2018-05-25T02:24:43.526Z,17.56
2018-05-25T02:25:44.241Z,17.60
2018-05-25T02:26:44.956Z,17.60
2018-05-25T02:27:45.668Z,17.60
2018-05-25T02:28:46.392Z,17.59
2018-05-25T02:29:47.105Z,17.57
2018-05-25T02:30:47.820Z,17.60
2018-05-25T02:31:48.534Z,17.63
2018-05-25T02:32:49.258Z,17.63
2018-05-25T02:33:49.976Z,17.63
2018-05-25T02:34:50.698Z,17.57
2018-05-25T02:35:51.411Z,17.60
2018-05-25T02:36:52.124Z,17.57
2018-05-25T02:37:52.836Z,17.57
2018-05-25T02:38:53.549Z,17.57
2018-05-25T02:39:54.265Z,17.51
2018-05-25T02:40:54.988Z,17.60
2018-05-25T02:41:55.707Z,17.52
2018-05-25T02:42:56.415Z,17.51
2018-05-25T02:43:57.140Z,17.52
2018-05-25T02:44:57.866Z,17.57
2018-05-25T02:45:58.591Z,17.52
2018-05-25T02:46:59.303Z,17.45
2018-05-25T02:48:00.018Z,17.49
2018-05-25T02:49:00.730Z,17.46
2018-05-25T02:50:01.456Z,17.46
2018-05-25T02:51:02.168Z,17.46
2018-05-25T02:52:02.896Z,17.48
2018-05-25T02:53:03.620Z,17.42
2018-05-25T02:54:04.333Z,17.48
2018-05-25T02:55:05.049Z,17.39
2018-05-25T02:56:05.774Z,17.45
2018-05-25T02:57:06.490Z,17.45
2018-05-25T02:58:07.200Z,17.41
2018-05-25T02:59:07.913Z,17.39
2018-05-25T03:00:08.627Z,17.41
2018-05-25T03:01:09.340Z,17.44
2018-05-25T03:02:10.053Z,17.42
2018-05-25T03:03:10.784Z,17.45
2018-05-25T03:04:11.494Z,17.39
2018-05-25T03:05:12.224Z,17.46
2018-05-25T03:06:12.939Z,17.52
2018-05-25T03:07:13.653Z,17.39
2018-05-25T03:08:14.371Z,17.51
2018-05-25T03:09:15.085Z,17.36
2018-05-25T03:10:15.799Z,17.52
2018-05-25T03:11:16.514Z,17.44
2018-05-25T03:12:17.236Z,17.44
2018-05-25T03:13:17.951Z,17.51
2018-05-25T03:14:18.676Z,17.41
2018-05-25T03:15:19.391Z,17.38
2018-05-25T03:16:20.106Z,17.49
2018-05-25T03:17:20.818Z,17.34
2018-05-25T03:18:21.531Z,17.44
2018-05-25T03:19:22.247Z,17.51
2018-05-25T03:20:22.958Z,17.39
2018-05-25T03:21:23.672Z,17.34
2018-05-25T03:22:24.387Z,17.34
2018-05-25T03:23:25.115Z,17.38
2018-05-25T03:24:25.845Z,17.30
2018-05-25T03:25:26.556Z,17.34
2018-05-25T03:26:27.287Z,17.34
2018-05-25T03:27:27.997Z,17.33
2018-05-25T03:28:28.714Z,17.39
2018-05-25T03:29:29.428Z,17.36
2018-05-25T03:30:30.148Z,17.30
2018-05-25T03:31:30.874Z,17.23
2018-05-25T03:32:31.588Z,17.33
2018-05-25T03:33:32.302Z,17.34
2018-05-25T03:34:33.017Z,17.26
2018-05-25T03:35:33.735Z,17.22
2018-05-25T03:36:34.451Z,17.22
2018-05-25T03:37:35.169Z,17.23
2018-05-25T03:38:35.885Z,17.29
2018-05-25T03:39:36.648Z,17.24
2018-05-25T03:40:37.331Z,17.31
2018-05-25T03:41:38.049Z,17.23
2018-05-25T03:42:38.764Z,17.30
2018-05-25T03:43:39.480Z,17.23
2018-05-25T03:44:40.208Z,17.30
2018-05-25T03:45:40.924Z,17.30
2018-05-25T03:46:41.640Z,17.31
2018-05-25T03:47:42.358Z,17.23
2018-05-25T03:48:43.079Z,17.20
2018-05-25T03:49:43.804Z,17.26
2018-05-25T03:50:44.531Z,17.26
2018-05-25T03:51:45.247Z,17.27
2018-05-25T03:52:45.965Z,17.33
2018-05-25T03:53:46.681Z,17.30
2018-05-25T03:54:47.397Z,17.20
2018-05-25T03:55:48.117Z,17.30
2018-05-25T03:56:48.833Z,17.31
2018-05-25T03:57:49.560Z,17.31
2018-05-25T03:58:50.278Z,17.36
2018-05-25T03:59:51.005Z,17.34
2018-05-25T04:00:51.729Z,17.39
2018-05-25T04:01:52.453Z,17.31
2018-05-25T04:02:53.170Z,17.36
2018-05-25T04:03:53.886Z,17.33
2018-05-25T04:04:54.603Z,17.33
2018-05-25T04:05:55.320Z,17.33
2018-05-25T04:06:56.036Z,17.30
2018-05-25T04:07:56.752Z,17.39
2018-05-25T04:08:57.470Z,17.33
2018-05-25T04:09:58.200Z,17.39
2018-05-25T04:10:58.915Z,17.33
2018-05-25T04:11:59.633Z,17.38
2018-05-25T04:13:00.349Z,17.34
2018-05-25T04:14:01.066Z,17.33
2018-05-25T04:15:01.785Z,17.33
2018-05-25T04:16:02.502Z,17.41
2018-05-25T04:17:03.217Z,17.34
2018-05-25T04:18:03.946Z,17.38
2018-05-25T04:19:04.664Z,17.36
2018-05-25T04:20:05.381Z,17.39
2018-05-25T04:21:06.097Z,17.39
2018-05-25T04:22:06.813Z,17.49
2018-05-25T04:23:07.532Z,17.45
2018-05-25T04:24:08.249Z,17.48
2018-05-25T04:25:08.966Z,17.42
2018-05-25T04:26:09.683Z,17.44
2018-05-25T04:27:10.399Z,17.49
2018-05-25T04:28:11.115Z,17.44
2018-05-25T04:29:11.832Z,17.49
2018-05-25T04:30:12.556Z,17.48
2018-05-25T04:31:13.274Z,17.45
2018-05-25T04:32:13.990Z,17.49
2018-05-25T04:33:14.716Z,17.51
2018-05-25T04:34:15.446Z,17.57
2018-05-25T04:35:16.172Z,17.56
2018-05-25T04:36:16.890Z,17.57
2018-05-25T04:37:17.607Z,17.56
2018-05-25T04:38:18.322Z,17.63
2018-05-25T04:39:19.049Z,17.59
2018-05-25T04:40:19.766Z,17.52
2018-05-25T04:41:20.481Z,17.59
2018-05-25T04:42:21.211Z,17.59
2018-05-25T04:43:21.928Z,17.67
2018-05-25T04:44:22.656Z,17.63
2018-05-25T04:45:23.373Z,17.68
2018-05-25T04:46:24.104Z,17.64
2018-05-25T04:47:24.822Z,17.67
2018-05-25T04:48:25.540Z,17.64
2018-05-25T04:49:26.257Z,17.63
2018-05-25T04:50:26.972Z,17.64
2018-05-25T04:51:27.692Z,17.68
2018-05-25T04:52:28.464Z,17.71
2018-05-25T04:53:29.133Z,17.65
2018-05-25T04:54:29.845Z,17.65
2018-05-25T04:55:30.564Z,17.71
2018-05-25T04:56:31.283Z,17.64
2018-05-25T04:57:32.015Z,17.68
2018-05-25T04:58:32.730Z,17.74
2018-05-25T04:59:33.455Z,17.78
2018-05-25T05:00:34.171Z,17.76
2018-05-25T05:01:34.886Z,17.85
2018-05-25T05:02:35.617Z,17.72
2018-05-25T05:03:36.333Z,17.79
2018-05-25T05:04:37.067Z,17.82
2018-05-25T05:05:37.779Z,17.72
2018-05-25T05:06:38.500Z,17.72
2018-05-25T05:07:39.217Z,17.87
2018-05-25T05:08:39.935Z,17.82
2018-05-25T05:09:40.655Z,17.80
2018-05-25T05:10:41.375Z,17.80
2018-05-25T05:11:42.091Z,17.87
2018-05-25T05:12:42.813Z,17.92
2018-05-25T05:13:43.539Z,17.82
2018-05-25T05:14:44.263Z,17.92
2018-05-25T05:15:44.973Z,17.87
2018-05-25T05:16:45.705Z,18.01
2018-05-25T05:17:46.421Z,17.94
2018-05-25T05:18:47.139Z,17.89
2018-05-25T05:19:47.858Z,17.86
2018-05-25T05:20:48.579Z,17.83
2018-05-25T05:21:49.296Z,17.90
2018-05-25T05:22:50.031Z,17.87
2018-05-25T05:23:50.757Z,18.00
2018-05-25T05:24:51.487Z,17.92
2018-05-25T05:25:52.205Z,17.89
2018-05-25T05:26:52.934Z,17.94
2018-05-25T05:27:53.652Z,17.89
2018-05-25T05:28:54.370Z,17.87
2018-05-25T05:29:55.090Z,17.92
2018-05-25T05:30:55.808Z,17.89
2018-05-25T05:31:56.525Z,17.92
2018-05-25T05:32:57.246Z,17.90
2018-05-25T05:33:57.965Z,17.87
2018-05-25T05:34:58.695Z,17.87
2018-05-25T05:35:59.414Z,17.94
2018-05-25T05:37:00.131Z,17.97
2018-05-25T05:38:00.850Z,17.98
2018-05-25T05:39:01.570Z,17.98
2018-05-25T05:40:02.290Z,17.98
2018-05-25T05:41:03.012Z,18.08
2018-05-25T05:42:03.728Z,18.01
2018-05-25T05:43:04.446Z,18.11
2018-05-25T05:44:05.163Z,18.15
2018-05-25T05:45:05.881Z,18.10
2018-05-25T05:46:06.601Z,18.22
2018-05-25T05:47:07.330Z,18.26
2018-05-25T05:48:08.065Z,18.26
2018-05-25T05:49:08.781Z,18.34
2018-05-25T05:50:09.501Z,18.34
2018-05-25T05:51:10.221Z,18.37
2018-05-25T05:52:10.940Z,18.43
2018-05-25T05:53:11.660Z,18.45
2018-05-25T05:54:12.381Z,18.52
2018-05-25T05:55:13.103Z,18.55
2018-05-25T05:56:13.820Z,18.60
2018-05-25T05:57:14.551Z,18.60
2018-05-25T05:58:15.272Z,18.60
2018-05-25T05:59:15.991Z,18.74
2018-05-25T06:00:16.713Z,18.74
2018-05-25T06:01:17.444Z,18.68
2018-05-25T06:02:18.165Z,18.75
2018-05-25T06:03:18.885Z,18.78
2018-05-25T06:04:19.656Z,18.78
2018-05-25T06:05:20.329Z,18.77
2018-05-25T06:06:21.061Z,18.92
2018-05-25T06:07:21.788Z,18.90
2018-05-25T06:08:22.504Z,18.96
2018-05-25T06:09:23.225Z,19.00
2018-05-25T06:10:23.958Z,19.02
2018-05-25T06:11:24.677Z,19.04
2018-05-25T06:12:25.416Z,18.99
2018-05-25T06:13:26.121Z,19.09
2018-05-25T06:14:26.842Z,19.04
2018-05-25T06:15:27.565Z,19.14
2018-05-25T06:16:28.285Z,19.12
2018-05-25T06:17:29.007Z,19.08
2018-05-25T06:18:29.731Z,19.08
2018-05-25T06:19:30.460Z,19.14
2018-05-25T06:20:31.196Z,19.14
2018-05-25T06:21:31.924Z,19.27
2018-05-25T06:22:32.651Z,19.22
2018-05-25T06:23:33.380Z,19.22
2018-05-25T06:24:34.099Z,19.29
2018-05-25T06:25:34.833Z,19.30
2018-05-25T06:26:35.552Z,19.40
2018-05-25T06:27:36.275Z,19.48
2018-05-25T06:28:37.008Z,19.51
2018-05-25T06:29:37.729Z,19.45
2018-05-25T06:30:38.448Z,19.58
2018-05-25T06:31:39.169Z,19.51
2018-05-25T06:32:39.903Z,19.54
2018-05-25T06:33:40.622Z,19.66
2018-05-25T06:34:41.390Z,19.69
2018-05-25T06:35:42.065Z,19.67
2018-05-25T06:36:42.784Z,19.76
2018-05-25T06:37:43.506Z,19.85
2018-05-25T06:38:44.227Z,19.73
2018-05-25T06:39:44.950Z,19.86
2018-05-25T06:40:45.677Z,19.79
2018-05-25T06:41:46.395Z,19.79
2018-05-25T06:42:47.127Z,19.82
2018-05-25T06:43:47.848Z,19.88
2018-05-25T06:44:48.572Z,19.91
2018-05-25T06:45:49.308Z,19.99
2018-05-25T06:46:50.026Z,20.00
2018-05-25T06:47:50.753Z,20.10
2018-05-25T06:48:51.485Z,20.09
2018-05-25T06:49:52.223Z,20.19
2018-05-25T06:50:52.948Z,20.28
2018-05-25T06:51:53.670Z,20.28
2018-05-25T06:52:54.393Z,20.29
2018-05-25T06:53:55.118Z,20.22
2018-05-25T06:54:55.849Z,20.18
2018-05-25T06:55:56.571Z,20.13
2018-05-25T06:56:57.295Z,20.31
2018-05-25T06:57:58.044Z,20.32
2018-05-25T06:58:58.744Z,20.43
2018-05-25T06:59:59.468Z,20.55
2018-05-25T07:01:00.193Z,20.34
2018-05-25T07:02:00.915Z,20.44
2018-05-25T07:03:01.639Z,20.47
2018-05-25T07:04:02.375Z,20.41
2018-05-25T07:05:03.087Z,20.14
2018-05-25T07:06:03.812Z,20.11
2018-05-25T07:07:04.531Z,20.22
2018-05-25T07:08:05.252Z,20.19
2018-05-25T07:09:05.976Z,20.29
2018-05-25T07:10:06.700Z,20.34
2018-05-25T07:11:07.424Z,20.29
2018-05-25T07:12:08.159Z,20.41
2018-05-25T07:13:08.896Z,20.39
2018-05-25T07:14:09.630Z,20.37
2018-05-25T07:15:10.351Z,20.31
2018-05-25T07:16:11.073Z,20.36
2018-05-25T07:17:11.797Z,20.47
2018-05-25T07:18:12.521Z,20.44
2018-05-25T07:19:13.243Z,20.55
2018-05-25T07:20:13.964Z,20.52
2018-05-25T07:21:14.686Z,20.47
2018-05-25T07:22:15.419Z,20.51
2018-05-25T07:23:16.140Z,20.55
2018-05-25T07:24:16.873Z,20.62
2018-05-25T07:25:17.594Z,20.59
2018-05-25T07:26:18.326Z,20.59
2018-05-25T07:27:19.049Z,20.72
2018-05-25T07:28:19.773Z,20.85
2018-05-25T07:29:20.507Z,20.82
2018-05-25T07:30:21.241Z,20.95
2018-05-25T07:31:21.969Z,20.93
2018-05-25T07:32:22.695Z,20.99
2018-05-25T07:33:23.438Z,21.24
2018-05-25T07:34:24.154Z,21.24
2018-05-25T07:35:24.879Z,21.42
2018-05-25T07:36:25.606Z,21.54
2018-05-25T07:37:26.333Z,21.77
2018-05-25T07:38:27.059Z,21.93
2018-05-25T07:39:27.788Z,21.79
2018-05-25T07:40:28.518Z,21.95
2018-05-25T07:41:29.260Z,22.07
2018-05-25T07:42:29.988Z,22.29
2018-05-25T07:43:30.719Z,22.33
2018-05-25T07:44:31.463Z,22.29
2018-05-25T07:45:32.205Z,22.50
2018-05-25T07:46:32.943Z,22.43
2018-05-25T07:47:33.670Z,22.22
2018-05-25T07:48:34.413Z,22.20
2018-05-25T07:49:35.147Z,22.33
2018-05-25T07:50:35.879Z,22.33
2018-05-25T07:51:36.611Z,22.32
2018-05-25T07:52:37.339Z,22.51
2018-05-25T07:53:38.067Z,22.35
2018-05-25T07:54:38.799Z,22.47
2018-05-25T07:55:39.530Z,22.39
2018-05-25T07:56:40.257Z,22.39
2018-05-25T07:57:40.991Z,22.36
2018-05-25T07:58:41.723Z,22.66
2018-05-25T07:59:42.467Z,22.80
2018-05-25T08:00:43.199Z,22.83
2018-05-25T08:01:43.933Z,22.87
2018-05-25T08:02:44.668Z,22.51
2018-05-25T08:03:45.408Z,22.69
2018-05-25T08:04:46.138Z,22.88
2018-05-25T08:05:46.873Z,22.94
2018-05-25T08:06:47.607Z,23.18
2018-05-25T08:07:48.336Z,23.21
2018-05-25T08:08:49.068Z,23.08
2018-05-25T08:09:49.852Z,23.00
2018-05-25T08:10:50.541Z,23.02
2018-05-25T08:11:51.267Z,23.09
2018-05-25T08:12:51.999Z,23.23
2018-05-25T08:13:52.731Z,23.23
2018-05-25T08:14:53.461Z,23.44
2018-05-25T08:15:54.227Z,23.43
2018-05-25T08:16:54.940Z,23.46
2018-05-25T08:17:55.680Z,23.65
2018-05-25T08:18:56.420Z,23.73
2018-05-25T08:19:57.151Z,23.93
2018-05-25T08:20:57.885Z,24.03
2018-05-25T08:21:58.630Z,24.14
2018-05-25T08:22:59.348Z,23.98
2018-05-25T08:24:00.089Z,23.50
2018-05-25T08:25:00.822Z,23.48
2018-05-25T08:26:01.603Z,23.61
2018-05-25T08:27:02.305Z,23.32
2018-05-25T08:28:03.037Z,23.23
2018-05-25T08:29:03.770Z,22.90
2018-05-25T08:30:04.509Z,23.05
2018-05-25T08:31:05.243Z,23.24
2018-05-25T08:32:05.984Z,23.36
2018-05-25T08:33:06.716Z,23.28
2018-05-25T08:34:07.463Z,23.48
2018-05-25T08:35:08.198Z,23.76
2018-05-25T08:36:08.930Z,24.05
2018-05-25T08:37:09.665Z,24.51
2018-05-25T08:38:10.398Z,24.65
2018-05-25T08:39:11.136Z,24.54
2018-05-25T08:40:11.884Z,24.57
2018-05-25T08:41:12.612Z,24.57
2018-05-25T08:42:13.346Z,24.93
2018-05-25T08:43:14.149Z,25.35
2018-05-25T08:44:14.826Z,25.50
2018-05-25T08:45:15.564Z,25.75
2018-05-25T08:46:16.296Z,25.77
2018-05-25T08:47:17.030Z,25.90
2018-05-25T08:48:17.764Z,25.95
2018-05-25T08:49:18.502Z,25.99
2018-05-25T08:50:19.236Z,26.36
2018-05-25T08:51:19.975Z,26.38
2018-05-25T08:52:20.718Z,26.34
2018-05-25T08:53:21.552Z,26.29
2018-05-25T08:54:22.200Z,26.02
2018-05-25T08:55:22.938Z,25.96
2018-05-25T08:56:23.673Z,26.44
2018-05-25T08:57:24.420Z,26.52
2018-05-25T08:58:25.157Z,25.93
2018-05-25T08:59:25.892Z,25.60
2018-05-25T09:00:26.632Z,25.48
2018-05-25T09:01:27.367Z,25.44
2018-05-25T09:02:28.102Z,25.06
2018-05-25T09:03:28.849Z,24.74
2018-05-25T09:04:29.592Z,24.99
2018-05-25T09:05:30.325Z,24.98
2018-05-25T09:06:31.061Z,24.98
2018-05-25T09:07:31.801Z,24.47
2018-05-25T09:08:32.550Z,25.01
2018-05-25T09:09:33.283Z,25.48
2018-05-25T09:10:34.021Z,25.78
2018-05-25T09:11:34.769Z,25.90
2018-05-25T09:12:35.509Z,26.23
2018-05-25T09:13:36.258Z,26.73
2018-05-25T09:14:36.998Z,26.84
2018-05-25T09:15:37.738Z,27.21
2018-05-25T09:16:38.479Z,27.54
2018-05-25T09:17:39.218Z,27.33
2018-05-25T09:18:39.963Z,27.67
2018-05-25T09:19:40.711Z,28.04
2018-05-25T09:20:41.469Z,28.08
2018-05-25T09:21:42.243Z,28.02
2018-05-25T09:22:42.981Z,28.25
2018-05-25T09:23:43.725Z,28.45
2018-05-25T09:24:44.469Z,27.75
2018-05-25T09:25:45.211Z,27.85
2018-05-25T09:26:45.956Z,27.35
2018-05-25T09:27:46.704Z,27.02
2018-05-25T09:28:47.449Z,26.74
2018-05-25T09:29:48.202Z,26.83
2018-05-25T09:30:48.980Z,25.98
2018-05-25T09:31:49.696Z,25.87
2018-05-25T09:32:50.454Z,26.05
2018-05-25T09:33:51.210Z,26.09
2018-05-25T09:34:51.954Z,26.23
2018-05-25T09:35:52.703Z,26.93
2018-05-25T09:36:53.446Z,27.36
2018-05-25T09:37:54.189Z,27.02
2018-05-25T09:38:54.938Z,27.52
2018-05-25T09:39:55.679Z,27.51
2018-05-25T09:40:56.422Z,27.26
2018-05-25T09:41:57.166Z,26.92
2018-05-25T09:42:57.909Z,26.93
2018-05-25T09:43:58.651Z,27.14
2018-05-25T09:44:59.393Z,27.33
2018-05-25T09:46:00.138Z,27.83
2018-05-25T09:47:00.888Z,27.98
2018-05-25T09:48:01.629Z,27.89
2018-05-25T09:49:02.371Z,28.04
2018-05-25T09:50:03.117Z,28.42
2018-05-25T09:51:03.852Z,28.30
2018-05-25T09:52:04.595Z,28.02
2018-05-25T09:53:05.339Z,28.23
2018-05-25T09:54:06.098Z,28.63
2018-05-25T09:55:06.832Z,28.52
2018-05-25T09:56:07.602Z,29.10
2018-05-25T09:57:08.334Z,28.39
2018-05-25T09:58:09.089Z,28.27
2018-05-25T09:59:09.842Z,28.19
2018-05-25T10:00:10.585Z,28.15
2018-05-25T10:01:11.329Z,28.66
2018-05-25T10:02:12.073Z,29.10
2018-05-25T10:03:12.821Z,29.47
2018-05-25T10:04:13.570Z,29.97
2018-05-25T10:05:14.307Z,30.48
2018-05-25T10:06:15.047Z,30.78
2018-05-25T10:07:15.792Z,31.03
2018-05-25T10:08:16.532Z,31.14
2018-05-25T10:09:17.287Z,30.51
2018-05-25T10:10:18.025Z,29.19
2018-05-25T10:11:18.768Z,27.92
2018-05-25T10:12:19.506Z,27.71
2018-05-25T10:13:20.244Z,27.15
2018-05-25T10:14:20.990Z,26.89
2018-05-25T10:15:21.741Z,26.81
2018-05-25T10:16:22.491Z,27.30
2018-05-25T10:17:23.249Z,27.63
2018-05-25T10:18:23.994Z,27.54
2018-05-25T10:19:24.748Z,27.75
2018-05-25T10:20:25.498Z,27.98
2018-05-25T10:21:26.254Z,28.54
2018-05-25T10:22:26.995Z,28.37
2018-05-25T10:23:27.740Z,28.59
2018-05-25T10:24:28.483Z,28.11
2018-05-25T10:25:29.226Z,27.45
2018-05-25T10:26:29.981Z,27.44
2018-05-25T10:27:30.720Z,27.70
2018-05-25T10:28:31.463Z,27.80
2018-05-25T10:29:32.203Z,27.90
2018-05-25T10:30:32.942Z,28.10
2018-05-25T10:31:33.689Z,28.41
2018-05-25T10:32:34.427Z,28.64
2018-05-25T10:33:35.173Z,28.42
2018-05-25T10:34:35.913Z,28.19
2018-05-25T10:35:36.658Z,27.77
2018-05-25T10:36:37.402Z,27.64
2018-05-25T10:37:38.146Z,27.33
2018-05-25T10:38:38.901Z,27.42
2018-05-25T10:39:39.641Z,27.47
2018-05-25T10:40:40.383Z,27.52
2018-05-25T10:41:41.130Z,27.83
2018-05-25T10:42:41.872Z,28.23
2018-05-25T10:43:42.616Z,28.10
2018-05-25T10:44:43.355Z,28.60
2018-05-25T10:45:44.170Z,28.35
2018-05-25T10:46:44.851Z,28.07
2018-05-25T10:47:45.589Z,28.22
2018-05-25T10:48:46.331Z,27.29
2018-05-25T10:49:47.072Z,27.90
2018-05-25T10:50:47.814Z,28.56
2018-05-25T10:51:48.559Z,29.01
2018-05-25T10:52:49.294Z,29.31
2018-05-25T10:53:50.045Z,29.59
2018-05-25T10:54:50.787Z,29.61
2018-05-25T10:55:51.535Z,29.93
2018-05-25T10:56:52.270Z,29.98
2018-05-25T10:57:53.015Z,30.69
2018-05-25T10:58:53.755Z,30.75
2018-05-25T10:59:54.489Z,30.73
2018-05-25T11:00:55.233Z,30.51
2018-05-25T11:01:55.990Z,29.65
2018-05-25T11:02:56.725Z,29.54
2018-05-25T11:03:57.463Z,29.54
2018-05-25T11:04:58.206Z,28.67
2018-05-25T11:05:58.948Z,28.47
2018-05-25T11:06:59.690Z,28.54
2018-05-25T11:08:00.427Z,28.10
2018-05-25T11:09:01.165Z,28.00
2018-05-25T11:10:01.919Z,27.87
2018-05-25T11:11:02.647Z,27.87
2018-05-25T11:12:03.388Z,28.17
2018-05-25T11:13:04.123Z,28.56
2018-05-25T11:14:04.861Z,28.52
2018-05-25T11:15:05.600Z,28.64
2018-05-25T11:16:06.342Z,28.69
2018-05-25T11:17:07.085Z,28.91
2018-05-25T11:18:07.831Z,29.24
2018-05-25T11:19:08.571Z,29.68
2018-05-25T11:20:09.308Z,30.00
2018-05-25T11:21:10.045Z,30.43
2018-05-25T11:22:10.788Z,30.43
2018-05-25T11:23:11.530Z,30.40
2018-05-25T11:24:12.278Z,30.09
2018-05-25T11:25:13.013Z,30.05
2018-05-25T11:26:13.754Z,30.00
2018-05-25T11:27:14.505Z,29.81
2018-05-25T11:28:15.258Z,29.76
2018-05-25T11:29:15.994Z,29.34
2018-05-25T11:30:16.733Z,28.57
2018-05-25T11:31:17.468Z,28.05
2018-05-25T11:32:18.202Z,27.75
2018-05-25T11:33:18.942Z,27.77
2018-05-25T11:34:19.680Z,28.11
2018-05-25T11:35:20.410Z,28.60
2018-05-25T11:36:21.145Z,28.29
2018-05-25T11:37:21.882Z,28.94
2018-05-25T11:38:22.624Z,28.97
2018-05-25T11:39:23.379Z,28.10
2018-05-25T11:40:24.127Z,27.74
2018-05-25T11:41:24.877Z,27.42
2018-05-25T11:42:25.617Z,27.33
2018-05-25T11:43:26.360Z,27.39
2018-05-25T11:44:27.099Z,27.89
2018-05-25T11:45:27.840Z,28.14
2018-05-25T11:46:28.584Z,27.75
2018-05-25T11:47:29.332Z,27.30
2018-05-25T11:48:30.080Z,27.54
2018-05-25T11:49:30.815Z,27.40
2018-05-25T11:50:31.547Z,27.12
2018-05-25T11:51:32.289Z,27.25
2018-05-25T11:52:33.021Z,27.45
2018-05-25T11:53:33.754Z,27.10
2018-05-25T11:54:34.485Z,27.60
2018-05-25T11:55:35.220Z,28.25
2018-05-25T11:56:35.957Z,28.57
2018-05-25T11:57:36.694Z,28.56
2018-05-25T11:58:37.425Z,28.25
2018-05-25T11:59:38.169Z,28.05
2018-05-25T12:00:38.898Z,28.04
2018-05-25T12:01:39.627Z,27.67
2018-05-25T12:02:40.367Z,27.59
2018-05-25T12:03:41.099Z,27.65
2018-05-25T12:04:41.829Z,27.92
2018-05-25T12:05:42.561Z,28.14
2018-05-25T12:06:43.293Z,28.19
2018-05-25T12:07:44.024Z,27.95
2018-05-25T12:08:44.753Z,28.14
2018-05-25T12:09:45.487Z,28.30
2018-05-25T12:10:46.220Z,28.62
2018-05-25T12:11:46.955Z,29.04
2018-05-25T12:12:47.693Z,28.54
2018-05-25T12:13:48.422Z,28.25
2018-05-25T12:14:49.154Z,28.08
2018-05-25T12:15:49.887Z,28.70
2018-05-25T12:16:50.635Z,28.64
2018-05-25T12:17:51.369Z,29.23
2018-05-25T12:18:52.105Z,29.56
2018-05-25T12:19:52.843Z,28.84
2018-05-25T12:20:53.583Z,28.44
2018-05-25T12:21:54.320Z,28.66
2018-05-25T12:22:55.058Z,29.07
2018-05-25T12:23:55.799Z,28.57
2018-05-25T12:24:56.538Z,28.23
2018-05-25T12:25:57.291Z,28.93
2018-05-25T12:26:58.036Z,29.17
2018-05-25T12:27:58.790Z,29.53
2018-05-25T12:28:59.531Z,29.45
2018-05-25T12:30:00.273Z,29.94
2018-05-25T12:31:01.016Z,30.16
2018-05-25T12:32:01.768Z,30.27
2018-05-25T12:33:02.512Z,29.91
2018-05-25T12:34:03.254Z,30.23
2018-05-25T12:35:04.001Z,30.57
2018-05-25T12:36:04.737Z,30.46
2018-05-25T12:37:05.477Z,29.68
2018-05-25T12:38:06.219Z,30.02
2018-05-25T12:39:06.958Z,30.46
2018-05-25T12:40:07.701Z,30.66
2018-05-25T12:41:08.452Z,30.65
2018-05-25T12:42:09.186Z,31.00
2018-05-25T12:43:09.922Z,31.56
2018-05-25T12:44:10.660Z,31.55
2018-05-25T12:45:11.395Z,31.42
2018-05-25T12:46:12.136Z,31.33
2018-05-25T12:47:12.888Z,31.56
2018-05-25T12:48:13.624Z,31.77
2018-05-25T12:49:14.362Z,31.06
2018-05-25T12:50:15.100Z,29.41
2018-05-25T12:51:15.853Z,28.56
2018-05-25T12:52:16.589Z,28.72
2018-05-25T12:53:17.333Z,28.42
2018-05-25T12:54:18.072Z,29.08
2018-05-25T12:55:18.817Z,29.72
2018-05-25T12:56:19.555Z,30.05
2018-05-25T12:57:20.308Z,30.47
2018-05-25T12:58:21.048Z,29.78
2018-05-25T12:59:21.787Z,30.23
2018-05-25T13:00:22.533Z,30.57
2018-05-25T13:01:23.280Z,30.80